Launceston Airport
YMLT : now visible

Airfield :











YOU CAN JOIN US ON...

 
LOGIN :

Register | Disclaimer

   EN    FR    IT 

 









Legend :    VFR   Marginal VFR   IFR   Intensive IFR   Very Intensive IFR
Visi :
Ceiling :
>= 8 km
>= 3000ft
5 to 8 km
1000 to 3000 ft
1500m to 5 km
500 to 1000 ft
800 to 1500m
200 to 500 ft
< 800m
< 200 ft
Symbols :   Thunderstorms  Fog  Heavy snow  Heavy precipitations  Wind > 20 kt






- Airport Elevation : 562 ft
- IATA code : LST


YMLT - Launceston

CURRENT METAR :
  • 250900Z AUTO 20004KT 9999 // OVC023 07/04 Q1028

EXPIRED METARs :
  • 250830Z AUTO 00000KT 9999 // OVC023 08/04 Q1028 RF00.0/000.0
  • 250800Z AUTO 19004KT 9999 // OVC023 07/04 Q1027
  • 250730Z AUTO 22004KT 9999 // OVC023 08/04 Q1027 RF00.0/000.0
  • 250700Z AUTO 23006KT 9999 // OVC023 08/04 Q1027
  • 250630Z AUTO 22005KT 9999 // SCT025 08/04 Q1027 RF00.0/000.0
  • 250600Z AUTO 22006KT 9999 // SCT027 09/04 Q1027 RF00.0/000.0

TAF AMD TAF YMLT
Valid from the 25 at 08:00 until the 26 at 06:00 UTC


250801Z 2508/2606 22005KT 9999 BKN025
FM250900 VRB03KT CAVOK
FM251100 16005KT CAVOK
BECMG 2522/2600 16005KT 9999 SCT015 BKN020
PROB30 2514/2600 0200 FG BKN001
YMMM FIR / Oceania



MET'MAP, your aeronautical weather chart ! - Copyright ORBIFLY December 2007 - Disclaimer

ORBIFLY MET'MAP TEAM :

Programming & Development : Alexandra Zaïnal
Concept & original design : Baudouin d'Aumeries
Assistance for programming : Marc-Olivier Méhu
Technical & hardware support : Manuel Goepfert

Contact : metmap@orbifly.com




SOURCES & CREDITS :

   NOAA       Earth
Advisory